createdAt,value
2023-04-16T00:00:49.616Z,99.99
2023-04-16T00:03:20.102Z,99.99
2023-04-16T00:05:50.379Z,99.99
2023-04-16T00:08:20.726Z,99.99
2023-04-16T00:10:51.010Z,99.99
2023-04-16T00:13:21.269Z,99.99
2023-04-16T00:15:51.317Z,99.99
2023-04-16T00:18:23.405Z,99.99
2023-04-16T00:20:54.662Z,99.99
2023-04-16T00:23:26.533Z,99.99
2023-04-16T00:25:58.399Z,99.99
2023-04-16T00:28:28.914Z,99.99
2023-04-16T00:30:59.006Z,99.99
2023-04-16T00:33:31.264Z,99.99
2023-04-16T00:36:03.546Z,99.99
2023-04-16T00:38:33.805Z,99.99
2023-04-16T00:41:03.854Z,99.99
2023-04-16T00:43:33.984Z,99.99
2023-04-16T00:46:06.378Z,99.99
2023-04-16T00:48:39.101Z,99.99
2023-04-16T00:51:10.631Z,99.99
2023-04-16T00:53:40.964Z,99.99
2023-04-16T00:56:12.453Z,99.99
2023-04-16T00:58:42.628Z,99.99
2023-04-16T01:01:13.069Z,99.99
2023-04-16T01:03:47.653Z,99.99
2023-04-16T01:06:20.962Z,99.99
2023-04-16T01:08:51.430Z,99.99
2023-04-16T01:11:22.326Z,99.99
2023-04-16T01:13:52.511Z,99.99
2023-04-16T01:16:22.765Z,99.99
2023-04-16T01:18:52.719Z,99.99
2023-04-16T01:21:22.843Z,99.99
2023-04-16T01:23:52.916Z,99.99
2023-04-16T01:26:23.013Z,99.99
2023-04-16T01:28:53.129Z,99.99
2023-04-16T01:31:23.211Z,99.99
2023-04-16T01:34:04.964Z,99.99
2023-04-16T01:36:35.486Z,99.99
2023-04-16T01:39:05.747Z,99.99
2023-04-16T01:41:35.765Z,99.99
2023-04-16T01:44:05.938Z,99.99
2023-04-16T01:46:37.770Z,99.99
2023-04-16T01:49:08.683Z,99.99
2023-04-16T01:51:38.907Z,99.99
2023-04-16T01:54:08.764Z,99.99
2023-04-16T01:56:38.610Z,99.99
2023-04-16T01:59:09.490Z,99.99
2023-04-16T02:01:43.732Z,99.99
2023-04-16T02:04:14.266Z,99.99
2023-04-16T02:06:44.416Z,99.99
2023-04-16T02:09:16.141Z,99.99
2023-04-16T02:11:46.098Z,99.99
2023-04-16T02:14:16.152Z,99.99
2023-04-16T02:16:46.770Z,99.99
2023-04-16T02:19:29.094Z,99.99
2023-04-16T02:21:59.149Z,99.99
2023-04-16T02:24:29.426Z,99.99
2023-04-16T02:27:01.847Z,99.99
2023-04-16T02:29:33.065Z,99.99
2023-04-16T02:32:11.084Z,99.99
2023-04-16T02:34:45.052Z,99.99
2023-04-16T02:37:16.543Z,99.99
2023-04-16T02:39:48.587Z,99.99
2023-04-16T02:42:18.623Z,99.99
2023-04-16T02:44:48.793Z,99.99
2023-04-16T02:47:18.647Z,99.99
2023-04-16T02:49:48.672Z,99.99
2023-04-16T02:52:18.488Z,99.99
2023-04-16T02:54:48.661Z,99.99
2023-04-16T02:57:18.751Z,99.99
2023-04-16T02:59:48.850Z,99.99
2023-04-16T03:02:19.031Z,99.99
2023-04-16T03:04:49.144Z,99.99
2023-04-16T03:07:19.587Z,99.99
2023-04-16T03:09:49.623Z,99.99
2023-04-16T03:12:19.628Z,99.99
2023-04-16T03:14:49.636Z,99.99
2023-04-16T03:17:20.633Z,99.99
2023-04-16T03:19:52.044Z,99.99
2023-04-16T03:22:22.387Z,99.99
2023-04-16T03:24:52.730Z,99.99
2023-04-16T03:27:22.688Z,99.99
2023-04-16T03:29:52.679Z,99.99
2023-04-16T03:32:22.787Z,99.99
2023-04-16T03:34:52.697Z,99.99
2023-04-16T03:37:23.054Z,99.99
2023-04-16T03:39:53.884Z,99.99
2023-04-16T03:42:24.415Z,99.99
2023-04-16T03:44:54.951Z,99.99
2023-04-16T03:47:25.443Z,99.99
2023-04-16T03:49:58.574Z,99.99
2023-04-16T03:52:29.771Z,99.99
2023-04-16T03:54:59.787Z,99.99
2023-04-16T03:57:32.776Z,99.99
2023-04-16T04:00:10.860Z,99.99
2023-04-16T04:03:00.182Z,99.99
2023-04-16T04:05:30.589Z,99.99
2023-04-16T04:08:01.758Z,99.99
2023-04-16T04:10:37.099Z,99.99
2023-04-16T04:13:09.004Z,99.99
2023-04-16T04:15:39.492Z,99.99
2023-04-16T04:18:09.512Z,99.99
2023-04-16T04:20:43.011Z,99.99
2023-04-16T04:23:17.349Z,99.99
2023-04-16T04:25:48.990Z,99.99
2023-04-16T04:28:21.098Z,99.99
2023-04-16T04:30:51.108Z,99.99
2023-04-16T04:33:21.602Z,99.99
2023-04-16T04:35:53.898Z,99.99
2023-04-16T04:38:26.743Z,99.99
2023-04-16T04:40:57.168Z,99.99
2023-04-16T04:43:28.619Z,99.99
2023-04-16T04:45:58.581Z,99.99
2023-04-16T04:48:30.740Z,99.99
2023-04-16T04:51:03.508Z,99.99
2023-04-16T04:53:35.041Z,99.99
2023-04-16T04:56:11.632Z,99.99
2023-04-16T04:58:43.657Z,99.99
2023-04-16T05:01:13.745Z,99.99
2023-04-16T05:03:43.996Z,99.99
2023-04-16T05:06:15.120Z,99.99
2023-04-16T05:08:45.272Z,99.99
2023-04-16T05:11:15.257Z,99.99
2023-04-16T05:13:45.226Z,99.99
2023-04-16T05:16:15.261Z,99.99
2023-04-16T05:18:45.275Z,99.99
2023-04-16T05:21:15.244Z,99.99
2023-04-16T05:23:45.192Z,99.99
2023-04-16T05:26:15.216Z,99.99
2023-04-16T05:28:45.179Z,99.99
2023-04-16T05:31:15.228Z,99.99
2023-04-16T05:33:45.223Z,99.99
2023-04-16T05:36:16.181Z,99.99
2023-04-16T05:38:46.115Z,99.99
2023-04-16T05:41:16.104Z,99.99
2023-04-16T05:43:46.037Z,99.99
2023-04-16T05:46:16.049Z,99.99
2023-04-16T05:48:46.052Z,99.99
2023-04-16T05:51:16.037Z,99.99
2023-04-16T05:53:46.095Z,99.99
2023-04-16T05:56:16.072Z,99.99
2023-04-16T05:58:46.908Z,99.99
2023-04-16T06:01:17.104Z,99.99
2023-04-16T06:03:47.249Z,99.99
2023-04-16T06:06:17.316Z,99.99
2023-04-16T06:08:47.532Z,99.99
2023-04-16T06:11:17.548Z,99.99
2023-04-16T06:13:47.485Z,99.99
2023-04-16T06:16:17.356Z,99.99
2023-04-16T06:18:47.440Z,99.99
2023-04-16T06:21:18.139Z,99.99
2023-04-16T06:23:48.148Z,99.99
2023-04-16T06:26:18.378Z,99.99
2023-04-16T06:28:48.503Z,99.99
2023-04-16T06:31:18.632Z,99.99
2023-04-16T06:33:48.686Z,99.99
2023-04-16T06:36:18.527Z,99.99
2023-04-16T06:38:48.334Z,99.99
2023-04-16T06:41:18.363Z,99.99
2023-04-16T06:43:48.359Z,99.99
2023-04-16T06:46:18.524Z,99.99
2023-04-16T06:48:48.591Z,99.99
2023-04-16T06:51:19.593Z,99.99
2023-04-16T06:53:50.339Z,99.99
2023-04-16T06:56:20.318Z,99.99
2023-04-16T06:58:50.492Z,99.99
2023-04-16T07:01:20.898Z,99.99
2023-04-16T07:03:51.226Z,99.99
2023-04-16T07:06:21.452Z,99.99
2023-04-16T07:08:51.467Z,99.99
2023-04-16T07:11:22.150Z,99.99
2023-04-16T07:13:52.420Z,99.99
2023-04-16T07:16:22.671Z,99.99
2023-04-16T07:18:53.709Z,99.99
2023-04-16T07:21:24.441Z,99.99
2023-04-16T07:23:54.375Z,99.99
2023-04-16T07:26:24.511Z,99.99
2023-04-16T07:28:54.461Z,99.99
2023-04-16T07:31:24.532Z,99.99
2023-04-16T07:33:54.854Z,99.99
2023-04-16T07:36:24.846Z,99.99
2023-04-16T07:38:54.751Z,99.99
2023-04-16T07:41:25.100Z,99.99
2023-04-16T07:43:55.047Z,99.99
2023-04-16T07:46:28.332Z,99.99
2023-04-16T07:49:03.306Z,99.99
2023-04-16T07:51:33.382Z,99.99
2023-04-16T07:54:03.333Z,99.99
2023-04-16T07:56:33.484Z,99.99
2023-04-16T07:59:14.861Z,99.99
2023-04-16T08:01:51.893Z,99.99
2023-04-16T08:04:26.269Z,99.99
2023-04-16T08:06:56.924Z,99.99
2023-04-16T08:09:30.044Z,99.99
2023-04-16T08:12:01.905Z,99.99
2023-04-16T08:14:32.070Z,99.99
2023-04-16T08:17:02.042Z,99.99
2023-04-16T08:19:32.307Z,99.99
2023-04-16T08:22:02.362Z,99.99
2023-04-16T08:24:32.488Z,99.99
2023-04-16T08:27:11.553Z,99.99
2023-04-16T08:29:47.634Z,99.99
2023-04-16T08:32:17.714Z,99.99
2023-04-16T08:34:47.814Z,99.99
2023-04-16T08:37:17.791Z,99.99
2023-04-16T08:39:47.763Z,99.99
2023-04-16T08:42:35.014Z,99.99
2023-04-16T08:45:20.584Z,99.99
2023-04-16T08:47:52.995Z,99.99
2023-04-16T08:50:27.661Z,99.99
2023-04-16T08:53:08.089Z,99.99
2023-04-16T08:55:40.607Z,99.99
2023-04-16T08:58:20.726Z,99.99
2023-04-16T09:00:52.463Z,99.99
2023-04-16T09:03:23.457Z,99.99
2023-04-16T09:05:55.702Z,99.99
2023-04-16T09:08:27.053Z,99.99
2023-04-16T09:10:58.398Z,99.99
2023-04-16T09:13:28.761Z,99.99
2023-04-16T09:15:59.302Z,99.99
2023-04-16T09:18:29.652Z,99.99
2023-04-16T09:20:59.857Z,99.99
2023-04-16T09:23:30.842Z,99.99
2023-04-16T09:26:01.540Z,99.99
2023-04-16T09:29:00.811Z,99.99
2023-04-16T09:31:30.844Z,99.99
2023-04-16T09:34:07.106Z,99.99
2023-04-16T09:36:38.298Z,99.99
2023-04-16T09:39:08.572Z,99.99
2023-04-16T09:41:40.938Z,99.99
2023-04-16T09:44:10.929Z,99.99
2023-04-16T09:46:44.393Z,99.99
2023-04-16T09:49:19.737Z,99.99
2023-04-16T09:51:53.930Z,99.99
2023-04-16T09:54:24.053Z,99.99
2023-04-16T09:56:59.044Z,99.99
2023-04-16T09:59:35.046Z,99.99
2023-04-16T10:02:15.886Z,99.99
2023-04-16T10:04:53.398Z,99.99
2023-04-16T10:07:23.899Z,99.99
2023-04-16T10:09:54.880Z,99.99
2023-04-16T10:12:25.711Z,99.99
2023-04-16T10:14:55.997Z,99.99
2023-04-16T10:17:27.910Z,99.99
2023-04-16T10:19:59.697Z,99.99
2023-04-16T10:22:29.659Z,99.99
2023-04-16T10:25:01.208Z,99.99
2023-04-16T10:27:31.996Z,99.99
2023-04-16T10:30:02.773Z,99.99
2023-04-16T10:32:34.042Z,99.99
2023-04-16T10:35:04.183Z,99.99
2023-04-16T10:37:34.520Z,99.99
2023-04-16T10:40:27.511Z,99.99
2023-04-16T10:43:02.653Z,99.99
2023-04-16T10:45:34.401Z,99.99
2023-04-16T10:48:08.108Z,99.99
2023-04-16T10:50:39.175Z,99.99
2023-04-16T10:53:28.984Z,99.99
2023-04-16T10:56:05.761Z,99.99
2023-04-16T10:58:37.864Z,99.99
2023-04-16T11:01:15.524Z,99.99
2023-04-16T11:03:49.338Z,99.99
2023-04-16T11:06:27.645Z,99.99
2023-04-16T11:08:57.717Z,99.99
2023-04-16T11:11:29.065Z,99.99
2023-04-16T11:13:59.103Z,99.99
2023-04-16T11:16:29.167Z,99.99
2023-04-16T11:18:59.453Z,99.99
2023-04-16T11:21:29.776Z,99.99
2023-04-16T11:24:00.566Z,99.99
2023-04-16T11:26:34.194Z,99.99
2023-04-16T11:29:14.891Z,99.99
2023-04-16T11:31:51.515Z,99.99
2023-04-16T11:34:22.444Z,99.99
2023-04-16T11:36:53.635Z,99.99
2023-04-16T11:39:24.440Z,99.99
2023-04-16T11:41:54.538Z,99.99
2023-04-16T11:44:29.153Z,99.99
2023-04-16T11:46:59.399Z,99.99
2023-04-16T11:49:30.570Z,99.99
2023-04-16T11:52:01.535Z,99.99
2023-04-16T11:54:35.905Z,99.99
2023-04-16T11:57:07.388Z,99.99
2023-04-16T11:59:38.249Z,99.99
2023-04-16T12:02:37.755Z,99.99
2023-04-16T12:05:29.695Z,99.99
2023-04-16T12:08:03.567Z,99.99
2023-04-16T12:10:38.967Z,99.99
2023-04-16T12:13:18.854Z,99.99
2023-04-16T12:15:57.119Z,99.99
2023-04-16T12:18:30.530Z,99.99
2023-04-16T12:21:00.547Z,99.99
2023-04-16T12:23:32.830Z,99.99
2023-04-16T12:26:11.344Z,99.99
2023-04-16T12:28:42.810Z,99.89
2023-04-16T12:31:12.879Z,99.41
2023-04-16T12:33:43.664Z,99.99
2023-04-16T12:36:21.170Z,99.99
2023-04-16T12:38:51.315Z,99.99
2023-04-16T12:41:21.291Z,99.99
2023-04-16T12:43:51.337Z,96.62
2023-04-16T12:46:23.200Z,96.65
2023-04-16T12:48:54.159Z,96.75
2023-04-16T12:51:24.403Z,95.80
2023-04-16T12:53:54.744Z,94.39
2023-04-16T12:56:24.853Z,96.51
2023-04-16T12:58:56.329Z,96.69
2023-04-16T13:01:26.578Z,96.62
2023-04-16T13:03:57.352Z,96.68
2023-04-16T13:06:27.677Z,97.84
2023-04-16T13:08:58.284Z,98.68
2023-04-16T13:11:28.360Z,98.21
2023-04-16T13:14:00.392Z,97.69
2023-04-16T13:16:30.370Z,96.06
2023-04-16T13:19:00.507Z,95.87
2023-04-16T13:21:31.423Z,96.00
2023-04-16T13:24:01.841Z,96.13
2023-04-16T13:26:31.843Z,95.76
2023-04-16T13:29:02.039Z,96.29
2023-04-16T13:31:33.259Z,96.66
2023-04-16T13:34:06.185Z,97.24
2023-04-16T13:36:36.520Z,98.52
2023-04-16T13:39:11.857Z,98.91
2023-04-16T13:41:42.797Z,99.71
2023-04-16T13:44:12.815Z,99.35
2023-04-16T13:46:44.920Z,99.47
2023-04-16T13:49:15.927Z,99.80
2023-04-16T13:51:45.996Z,99.99
2023-04-16T13:54:15.862Z,99.99
2023-04-16T13:56:45.778Z,99.99
2023-04-16T13:59:16.957Z,99.99
2023-04-16T14:01:48.183Z,99.99
2023-04-16T14:04:19.096Z,99.99
2023-04-16T14:06:52.303Z,99.99
2023-04-16T14:09:22.471Z,99.99
2023-04-16T14:11:53.092Z,99.99
2023-04-16T14:14:23.088Z,99.99
2023-04-16T14:16:52.979Z,99.99
2023-04-16T14:19:24.185Z,99.99
2023-04-16T14:21:54.203Z,99.99
2023-04-16T14:24:24.042Z,99.99
2023-04-16T14:26:54.090Z,99.99
2023-04-16T14:29:23.970Z,99.99
2023-04-16T14:31:53.922Z,99.99
2023-04-16T14:34:24.756Z,99.99
2023-04-16T14:36:54.830Z,99.99
2023-04-16T14:39:26.520Z,99.99
2023-04-16T14:41:56.550Z,99.99
2023-04-16T14:44:26.748Z,99.99
2023-04-16T14:46:57.011Z,99.99
2023-04-16T14:49:28.551Z,99.99
2023-04-16T14:51:58.563Z,99.99
2023-04-16T14:54:29.274Z,99.99
2023-04-16T14:56:59.514Z,99.99
2023-04-16T14:59:30.006Z,99.99
2023-04-16T15:02:00.767Z,99.99
2023-04-16T15:04:32.040Z,99.99
2023-04-16T15:07:03.354Z,99.99
2023-04-16T15:09:33.572Z,99.99
2023-04-16T15:12:03.830Z,99.99
2023-04-16T15:14:33.841Z,99.99
2023-04-16T15:17:03.949Z,99.99
2023-04-16T15:19:34.009Z,99.99
2023-04-16T15:22:05.010Z,99.99
2023-04-16T15:24:35.053Z,99.99
2023-04-16T15:27:07.646Z,99.99
2023-04-16T15:29:38.647Z,99.99
2023-04-16T15:32:08.657Z,99.99
2023-04-16T15:34:38.666Z,99.69
2023-04-16T15:37:08.854Z,99.06
2023-04-16T15:39:38.871Z,99.99
2023-04-16T15:42:09.306Z,99.99
2023-04-16T15:44:39.336Z,99.99
2023-04-16T15:47:10.808Z,99.99
2023-04-16T15:49:41.024Z,99.99
2023-04-16T15:52:12.905Z,97.54
2023-04-16T15:54:42.673Z,97.83
2023-04-16T15:57:12.645Z,95.79
2023-04-16T15:59:44.658Z,95.47
2023-04-16T16:02:18.281Z,96.11
2023-04-16T16:04:48.533Z,96.54
2023-04-16T16:07:21.751Z,97.83
2023-04-16T16:09:54.197Z,97.00
2023-04-16T16:12:24.633Z,97.05
2023-04-16T16:14:54.821Z,97.38
2023-04-16T16:17:25.039Z,97.10
2023-04-16T16:19:57.483Z,97.14
2023-04-16T16:22:28.953Z,98.92
2023-04-16T16:24:59.625Z,98.35
2023-04-16T16:27:29.772Z,98.40
2023-04-16T16:30:01.895Z,98.27
2023-04-16T16:32:32.079Z,96.98
2023-04-16T16:35:02.149Z,96.66
2023-04-16T16:37:31.979Z,95.80
2023-04-16T16:40:02.328Z,94.80
2023-04-16T16:42:32.841Z,94.49
2023-04-16T16:45:06.471Z,93.68
2023-04-16T16:47:36.644Z,93.89
2023-04-16T16:50:07.433Z,95.28
2023-04-16T16:52:37.398Z,95.48
2023-04-16T16:55:10.794Z,95.50
2023-04-16T16:57:41.291Z,95.89
2023-04-16T17:00:18.082Z,96.15
2023-04-16T17:02:48.712Z,96.00
2023-04-16T17:05:18.868Z,96.27
2023-04-16T17:07:49.041Z,97.52
2023-04-16T17:10:22.147Z,98.00
2023-04-16T17:12:53.998Z,98.85
2023-04-16T17:15:24.062Z,99.45
2023-04-16T17:17:54.241Z,99.99
2023-04-16T17:20:24.084Z,99.99
2023-04-16T17:22:54.100Z,99.99
2023-04-16T17:25:24.412Z,99.99
2023-04-16T17:27:54.399Z,99.99
2023-04-16T17:30:28.916Z,99.99
2023-04-16T17:32:59.138Z,99.99
2023-04-16T17:35:29.218Z,99.99
2023-04-16T17:37:59.205Z,99.99
2023-04-16T17:40:29.287Z,99.99
2023-04-16T17:42:59.115Z,99.99
2023-04-16T17:45:29.307Z,99.99
2023-04-16T17:47:59.142Z,99.99
2023-04-16T17:50:29.430Z,99.99
2023-04-16T17:53:04.526Z,99.99
2023-04-16T17:55:34.582Z,99.99
2023-04-16T17:58:05.462Z,99.99
2023-04-16T18:00:35.485Z,99.99
2023-04-16T18:03:05.879Z,99.99
2023-04-16T18:05:36.119Z,99.99
2023-04-16T18:08:06.230Z,99.99
2023-04-16T18:10:36.292Z,99.99
2023-04-16T18:13:06.093Z,99.99
2023-04-16T18:15:39.616Z,99.99
2023-04-16T18:18:10.090Z,99.99
2023-04-16T18:20:40.212Z,99.99
2023-04-16T18:23:10.354Z,99.99
2023-04-16T18:25:40.465Z,99.99
2023-04-16T18:28:13.634Z,99.99
2023-04-16T18:30:44.354Z,99.99
2023-04-16T18:35:47.488Z,99.99
2023-04-16T18:38:17.458Z,99.99
2023-04-16T18:40:48.172Z,99.99
2023-04-16T18:43:18.284Z,99.99
2023-04-16T18:45:48.100Z,99.99
2023-04-16T18:48:18.081Z,99.99
2023-04-16T18:50:49.917Z,99.99
2023-04-16T18:53:20.151Z,99.99
2023-04-16T18:55:55.330Z,99.99
2023-04-16T18:58:26.319Z,99.99
2023-04-16T19:00:59.635Z,99.99
2023-04-16T19:03:30.987Z,99.99
2023-04-16T19:06:01.304Z,99.99
2023-04-16T19:08:31.339Z,99.99
2023-04-16T19:11:01.224Z,99.99
2023-04-16T19:13:31.667Z,99.99
2023-04-16T19:16:03.308Z,99.99
2023-04-16T19:18:33.411Z,99.99
2023-04-16T19:21:03.567Z,99.99
2023-04-16T19:23:33.598Z,99.99
2023-04-16T19:26:04.602Z,99.99
2023-04-16T19:28:34.583Z,99.99
2023-04-16T19:31:04.579Z,99.99
2023-04-16T19:33:35.545Z,99.99
2023-04-16T19:36:05.775Z,99.99
2023-04-16T19:38:35.776Z,99.99
2023-04-16T19:41:05.800Z,99.99
2023-04-16T19:43:36.620Z,99.99
2023-04-16T19:46:07.178Z,99.99
2023-04-16T19:48:37.529Z,99.99
2023-04-16T19:51:07.564Z,99.99
2023-04-16T19:53:37.629Z,99.99
2023-04-16T19:56:07.776Z,99.99
2023-04-16T19:58:37.952Z,99.99
2023-04-16T20:01:11.749Z,99.99
2023-04-16T20:03:42.223Z,99.99
2023-04-16T20:06:12.507Z,99.99
2023-04-16T20:08:45.641Z,99.99
2023-04-16T20:11:15.571Z,99.99
2023-04-16T20:13:49.007Z,99.99
2023-04-16T20:16:24.037Z,99.99
2023-04-16T20:18:57.192Z,99.99
2023-04-16T20:21:27.440Z,99.99
2023-04-16T20:23:57.594Z,99.99
2023-04-16T20:26:29.590Z,99.99
2023-04-16T20:28:59.699Z,99.99
2023-04-16T20:31:29.739Z,99.99
2023-04-16T20:33:59.791Z,99.99
2023-04-16T20:36:30.034Z,99.99
2023-04-16T20:39:01.043Z,99.99
2023-04-16T20:41:31.446Z,99.99
2023-04-16T20:44:06.407Z,99.99
2023-04-16T20:46:39.759Z,99.99
2023-04-16T20:49:10.067Z,99.99
2023-04-16T20:51:41.336Z,99.99
2023-04-16T20:54:11.583Z,99.99
2023-04-16T20:56:42.003Z,99.99
2023-04-16T20:59:14.528Z,99.99
2023-04-16T21:01:44.779Z,99.99
2023-04-16T21:04:15.059Z,99.99
2023-04-16T21:06:45.149Z,99.99
2023-04-16T21:09:15.365Z,99.99
2023-04-16T21:11:45.400Z,99.99
2023-04-16T21:14:15.310Z,99.99
2023-04-16T21:16:45.550Z,99.99
2023-04-16T21:19:15.565Z,99.99
2023-04-16T21:21:45.649Z,99.99
2023-04-16T21:24:16.776Z,99.99
2023-04-16T21:26:46.841Z,99.99
2023-04-16T21:29:17.119Z,99.99
2023-04-16T21:31:47.225Z,99.99
2023-04-16T21:34:17.328Z,99.99
2023-04-16T21:36:47.796Z,99.99
2023-04-16T21:39:18.715Z,99.99
2023-04-16T21:41:49.200Z,99.99
2023-04-16T21:44:20.115Z,99.99
2023-04-16T21:46:50.944Z,99.99
2023-04-16T21:49:21.039Z,99.99
2023-04-16T21:51:51.569Z,99.99
2023-04-16T21:54:21.854Z,99.99
2023-04-16T21:56:52.073Z,99.99
2023-04-16T21:59:23.033Z,99.99
2023-04-16T22:01:53.362Z,99.99
2023-04-16T22:04:27.268Z,99.99
2023-04-16T22:06:58.352Z,99.99
2023-04-16T22:09:28.355Z,99.99
2023-04-16T22:12:01.530Z,99.99
2023-04-16T22:14:33.043Z,99.99
2023-04-16T22:17:04.648Z,99.99
2023-04-16T22:19:35.918Z,99.99
2023-04-16T22:22:06.123Z,99.99
2023-04-16T22:24:36.121Z,99.99
2023-04-16T22:27:07.130Z,99.99
2023-04-16T22:29:37.325Z,99.99
2023-04-16T22:32:07.770Z,99.99
2023-04-16T22:34:38.036Z,99.99
2023-04-16T22:37:09.282Z,99.99
2023-04-16T22:39:39.632Z,99.99
2023-04-16T22:42:09.737Z,99.99
2023-04-16T22:44:39.865Z,99.99
2023-04-16T22:47:09.900Z,99.99
2023-04-16T22:49:39.982Z,99.99
2023-04-16T22:52:10.029Z,99.99
2023-04-16T22:54:39.998Z,99.99
2023-04-16T22:57:10.065Z,99.99
2023-04-16T22:59:40.151Z,99.99
2023-04-16T23:02:11.255Z,99.99
2023-04-16T23:04:41.443Z,99.99
2023-04-16T23:07:12.643Z,99.99
2023-04-16T23:09:42.893Z,99.99
2023-04-16T23:12:12.932Z,99.99
2023-04-16T23:14:46.972Z,99.99
2023-04-16T23:17:17.164Z,99.99
2023-04-16T23:19:47.188Z,99.99
2023-04-16T23:22:17.237Z,99.99
2023-04-16T23:24:47.557Z,99.99
2023-04-16T23:27:17.681Z,99.99
2023-04-16T23:29:47.548Z,99.99
2023-04-16T23:32:17.563Z,99.99
2023-04-16T23:34:47.483Z,99.99
2023-04-16T23:37:17.731Z,99.99
2023-04-16T23:39:47.945Z,99.99
2023-04-16T23:42:18.176Z,99.99
2023-04-16T23:44:48.153Z,99.99
2023-04-16T23:47:18.413Z,99.99
2023-04-16T23:49:48.449Z,99.99
2023-04-16T23:52:18.362Z,99.99
2023-04-16T23:54:48.618Z,99.99
2023-04-16T23:57:18.704Z,99.99
2023-04-16T23:59:48.565Z,99.99
